createdAt,value
2018-08-23T00:01:10.027Z,22.09
2018-08-23T00:02:09.942Z,22.05
2018-08-23T00:04:02.700Z,22.05
2018-08-23T00:05:02.626Z,22.05
2018-08-23T00:06:55.398Z,21.94
2018-08-23T00:07:55.316Z,21.98
2018-08-23T00:09:48.312Z,21.98
2018-08-23T00:10:48.240Z,21.99
2018-08-23T00:12:41.250Z,22.05
2018-08-23T00:13:41.198Z,21.96
2018-08-23T00:15:33.931Z,21.98
2018-08-23T00:16:33.867Z,21.92
2018-08-23T00:18:26.623Z,21.94
2018-08-23T00:19:26.544Z,21.84
2018-08-23T00:21:19.311Z,21.80
2018-08-23T00:22:19.225Z,21.65
2018-08-23T00:24:11.984Z,21.88
2018-08-23T00:25:11.912Z,21.82
2018-08-23T00:27:04.707Z,21.86
2018-08-23T00:28:04.595Z,21.80
2018-08-23T00:29:57.349Z,21.77
2018-08-23T00:30:57.278Z,21.75
2018-08-23T00:32:50.302Z,21.75
2018-08-23T00:33:50.219Z,21.82
2018-08-23T00:35:43.217Z,21.72
2018-08-23T00:36:43.150Z,21.68
2018-08-23T00:38:35.917Z,21.53
2018-08-23T00:39:35.832Z,21.62
2018-08-23T00:41:28.603Z,21.56
2018-08-23T00:42:28.517Z,21.53
2018-08-23T00:44:21.274Z,21.52
2018-08-23T00:45:21.203Z,21.43
2018-08-23T00:47:13.970Z,21.47
2018-08-23T00:48:13.889Z,21.53
2018-08-23T00:50:06.697Z,21.44
2018-08-23T00:51:06.578Z,21.44
2018-08-23T00:52:59.347Z,21.47
2018-08-23T00:53:59.264Z,21.35
2018-08-23T00:55:52.274Z,21.32
2018-08-23T00:56:52.201Z,21.34
2018-08-23T00:58:45.275Z,21.31
2018-08-23T00:59:45.195Z,21.28
2018-08-23T01:01:37.962Z,21.27
2018-08-23T01:02:37.878Z,21.22
2018-08-23T01:04:30.638Z,21.28
2018-08-23T01:05:30.561Z,21.28
2018-08-23T01:07:23.330Z,21.31
2018-08-23T01:08:23.247Z,21.28
2018-08-23T01:10:16.002Z,21.31
2018-08-23T01:11:15.930Z,21.19
2018-08-23T01:13:08.893Z,21.19
2018-08-23T01:14:08.807Z,21.17
2018-08-23T01:16:01.577Z,21.19
2018-08-23T01:17:01.528Z,21.14
2018-08-23T01:18:54.276Z,21.13
2018-08-23T01:19:54.193Z,21.13
2018-08-23T01:21:47.246Z,21.12
2018-08-23T01:22:47.144Z,21.07
2018-08-23T01:24:39.910Z,21.04
2018-08-23T01:25:39.835Z,21.12
2018-08-23T01:27:32.610Z,21.14
2018-08-23T01:28:32.526Z,21.14
2018-08-23T01:30:25.293Z,21.22
2018-08-23T01:31:25.223Z,21.21
2018-08-23T01:33:17.995Z,21.24
2018-08-23T01:34:17.906Z,21.12
2018-08-23T01:36:10.663Z,21.09
2018-08-23T01:37:10.588Z,21.12
2018-08-23T01:39:03.362Z,21.06
2018-08-23T01:40:03.279Z,20.98
2018-08-23T01:41:56.047Z,20.99
2018-08-23T01:42:55.964Z,21.04
2018-08-23T01:44:48.964Z,21.04
2018-08-23T01:45:48.887Z,21.01
2018-08-23T01:47:41.657Z,20.89
2018-08-23T01:48:41.576Z,20.91
2018-08-23T01:50:34.332Z,20.91
2018-08-23T01:51:34.257Z,20.85
2018-08-23T01:53:27.030Z,20.88
2018-08-23T01:54:26.945Z,20.82
2018-08-23T01:56:19.702Z,20.82
2018-08-23T01:57:19.629Z,20.79
2018-08-23T01:59:12.394Z,20.72
2018-08-23T02:00:12.312Z,20.72
2018-08-23T02:02:05.094Z,20.59
2018-08-23T02:03:04.995Z,20.59
2018-08-23T02:04:57.753Z,20.67
2018-08-23T02:05:57.677Z,20.67
2018-08-23T02:07:50.685Z,20.67
2018-08-23T02:08:50.601Z,20.70
2018-08-23T02:10:43.905Z,20.66
2018-08-23T02:11:43.832Z,20.70
2018-08-23T02:13:36.596Z,20.64
2018-08-23T02:14:36.516Z,20.62
2018-08-23T02:16:29.274Z,20.62
2018-08-23T02:17:29.200Z,20.69
2018-08-23T02:19:22.162Z,20.69
2018-08-23T02:20:22.082Z,20.73
2018-08-23T02:22:14.846Z,20.84
2018-08-23T02:23:14.761Z,20.72
2018-08-23T02:25:07.526Z,20.70
2018-08-23T02:26:07.446Z,20.73
2018-08-23T02:28:00.412Z,20.76
2018-08-23T02:29:00.330Z,20.85
2018-08-23T02:30:53.281Z,20.79
2018-08-23T02:31:53.204Z,20.76
2018-08-23T02:33:46.268Z,20.79
2018-08-23T02:34:46.195Z,20.69
2018-08-23T02:36:39.182Z,20.67
2018-08-23T02:37:39.111Z,20.67
2018-08-23T02:39:31.884Z,20.50
2018-08-23T02:40:31.798Z,20.38
2018-08-23T02:42:24.549Z,20.50
2018-08-23T02:43:24.478Z,20.42
2018-08-23T02:45:17.253Z,20.41
2018-08-23T02:46:17.168Z,20.38
2018-08-23T02:48:09.934Z,20.35
2018-08-23T02:49:09.851Z,20.38
2018-08-23T02:51:02.803Z,20.38
2018-08-23T02:52:02.741Z,20.33
2018-08-23T02:53:55.494Z,20.31
2018-08-23T02:54:55.410Z,20.23
2018-08-23T02:56:48.426Z,20.29
2018-08-23T02:57:48.351Z,20.28
2018-08-23T02:59:41.121Z,20.23
2018-08-23T03:00:41.036Z,20.29
2018-08-23T03:02:33.795Z,20.29
2018-08-23T03:03:33.721Z,20.20
2018-08-23T03:05:26.494Z,20.28
2018-08-23T03:06:26.417Z,20.21
2018-08-23T03:08:19.202Z,20.26
2018-08-23T03:09:19.091Z,20.31
2018-08-23T03:11:11.850Z,20.20
2018-08-23T03:12:11.777Z,20.20
2018-08-23T03:14:04.577Z,20.23
2018-08-23T03:15:04.467Z,20.20
2018-08-23T03:16:57.222Z,20.16
2018-08-23T03:17:57.146Z,20.11
2018-08-23T03:19:50.145Z,20.11
2018-08-23T03:20:50.061Z,20.14
2018-08-23T03:22:42.822Z,20.17
2018-08-23T03:23:42.743Z,20.13
2018-08-23T03:25:35.512Z,20.13
2018-08-23T03:26:35.428Z,20.10
2018-08-23T03:28:28.200Z,19.91
2018-08-23T03:29:28.117Z,19.77
2018-08-23T03:31:20.884Z,19.65
2018-08-23T03:32:20.808Z,19.63
2018-08-23T03:34:13.591Z,19.44
2018-08-23T03:35:13.510Z,19.44
2018-08-23T03:37:06.265Z,19.41
2018-08-23T03:38:06.191Z,19.39
2018-08-23T03:39:58.953Z,19.29
2018-08-23T03:40:58.871Z,19.29
2018-08-23T03:42:51.862Z,19.37
2018-08-23T03:43:51.792Z,19.39
2018-08-23T03:45:45.005Z,19.32
2018-08-23T03:46:44.923Z,19.32
2018-08-23T03:47:44.852Z,19.36
2018-08-23T03:48:44.782Z,19.31
2018-08-23T03:49:44.711Z,19.32
2018-08-23T03:50:44.641Z,19.26
2018-08-23T03:51:44.571Z,19.33
2018-08-23T03:52:44.500Z,19.31
2018-08-23T03:53:44.428Z,19.33
2018-08-23T03:54:44.357Z,19.28
2018-08-23T03:55:44.288Z,19.26
2018-08-23T03:56:44.219Z,19.22
2018-08-23T03:57:44.148Z,19.29
2018-08-23T03:58:44.074Z,19.16
2018-08-23T03:59:44.006Z,19.13
2018-08-23T04:00:43.936Z,19.18
2018-08-23T04:01:43.866Z,19.10
2018-08-23T04:02:43.799Z,19.11
2018-08-23T04:03:43.723Z,19.14
2018-08-23T04:04:43.655Z,19.08
2018-08-23T04:05:43.580Z,18.98
2018-08-23T04:06:43.513Z,19.07
2018-08-23T04:07:43.440Z,19.11
2018-08-23T04:08:43.382Z,18.98
2018-08-23T04:09:43.300Z,19.00
2018-08-23T04:10:43.231Z,19.00
2018-08-23T04:11:43.161Z,19.06
2018-08-23T04:12:43.086Z,18.95
2018-08-23T04:13:43.016Z,19.02
2018-08-23T04:14:42.944Z,18.98
2018-08-23T04:15:42.874Z,19.08
2018-08-23T04:16:42.803Z,19.04
2018-08-23T04:17:42.733Z,19.11
2018-08-23T04:18:42.663Z,18.95
2018-08-23T04:19:42.595Z,18.88
2018-08-23T04:20:42.523Z,18.92
2018-08-23T04:21:42.450Z,18.87
2018-08-23T04:22:42.411Z,19.04
2018-08-23T04:23:42.305Z,19.00
2018-08-23T04:24:42.238Z,18.94
2018-08-23T04:25:42.166Z,19.00
2018-08-23T04:26:42.094Z,19.14
2018-08-23T04:27:42.022Z,19.06
2018-08-23T04:28:41.956Z,19.16
2018-08-23T04:29:41.881Z,19.16
2018-08-23T04:30:41.810Z,19.14
2018-08-23T04:31:41.739Z,19.11
2018-08-23T04:32:41.669Z,19.14
2018-08-23T04:33:41.597Z,19.06
2018-08-23T04:34:41.531Z,19.11
2018-08-23T04:35:41.456Z,19.11
2018-08-23T04:36:41.385Z,18.98
2018-08-23T04:37:41.315Z,19.04
2018-08-23T04:38:41.244Z,19.02
2018-08-23T04:39:41.172Z,19.11
2018-08-23T04:40:41.103Z,18.95
2018-08-23T04:41:41.032Z,19.00
2018-08-23T04:42:40.975Z,18.99
2018-08-23T04:43:40.888Z,19.08
2018-08-23T04:44:40.817Z,19.08
2018-08-23T04:45:40.747Z,18.92
2018-08-23T04:46:40.678Z,19.00
2018-08-23T04:47:40.608Z,18.99
2018-08-23T04:48:40.536Z,18.92
2018-08-23T04:49:40.463Z,18.91
2018-08-23T04:50:40.397Z,18.81
2018-08-23T04:51:40.340Z,18.78
2018-08-23T04:52:40.251Z,18.81
2018-08-23T04:53:40.179Z,18.82
2018-08-23T04:54:40.108Z,18.90
2018-08-23T04:55:40.037Z,19.00
2018-08-23T04:56:39.967Z,18.92
2018-08-23T04:57:39.897Z,19.06
2018-08-23T04:58:39.830Z,18.95
2018-08-23T04:59:39.754Z,18.99
2018-08-23T05:00:39.681Z,18.91
2018-08-23T05:01:39.613Z,18.92
2018-08-23T05:02:39.538Z,18.99
2018-08-23T05:03:39.470Z,18.99
2018-08-23T05:04:39.398Z,19.00
2018-08-23T05:05:39.329Z,18.88
2018-08-23T05:06:39.258Z,18.98
2018-08-23T05:07:39.184Z,19.06
2018-08-23T05:08:39.113Z,19.02
2018-08-23T05:09:39.045Z,19.00
2018-08-23T05:10:38.964Z,18.91
2018-08-23T05:11:38.901Z,18.92
2018-08-23T05:12:38.828Z,19.08
2018-08-23T05:13:38.756Z,18.98
2018-08-23T05:14:38.690Z,18.94
2018-08-23T05:15:38.619Z,19.04
2018-08-23T05:16:38.546Z,18.94
2018-08-23T05:17:38.480Z,18.98
2018-08-23T05:18:38.402Z,18.95
2018-08-23T05:19:38.333Z,19.08
2018-08-23T05:20:38.262Z,19.11
2018-08-23T05:21:38.202Z,19.06
2018-08-23T05:22:38.119Z,19.08
2018-08-23T05:23:38.049Z,19.04
2018-08-23T05:24:37.987Z,19.07
2018-08-23T05:25:37.907Z,19.04
2018-08-23T05:26:37.838Z,19.08
2018-08-23T05:27:37.765Z,18.95
2018-08-23T05:28:37.696Z,18.98
2018-08-23T05:29:37.625Z,19.04
2018-08-23T05:30:37.557Z,18.90
2018-08-23T05:31:37.484Z,18.95
2018-08-23T05:32:37.424Z,18.98
2018-08-23T05:33:37.338Z,19.06
2018-08-23T05:34:37.303Z,19.14
2018-08-23T05:35:37.197Z,19.13
2018-08-23T05:36:37.126Z,19.31
2018-08-23T05:37:37.055Z,19.23
2018-08-23T05:38:36.985Z,19.19
2018-08-23T05:39:36.913Z,19.29
2018-08-23T05:40:36.847Z,19.33
2018-08-23T05:41:36.771Z,19.51
2018-08-23T05:42:36.702Z,19.47
2018-08-23T05:43:36.633Z,19.36
2018-08-23T05:44:36.565Z,19.29
2018-08-23T05:45:36.493Z,19.16
2018-08-23T05:46:36.421Z,19.13
2018-08-23T05:47:36.396Z,18.91
2018-08-23T05:48:36.278Z,19.04
2018-08-23T05:49:36.208Z,19.08
2018-08-23T05:50:36.135Z,19.16
2018-08-23T05:51:36.067Z,19.18
2018-08-23T05:52:35.994Z,19.29
2018-08-23T05:53:35.925Z,19.28
2018-08-23T05:54:35.851Z,19.43
2018-08-23T05:55:35.781Z,19.44
2018-08-23T05:56:35.709Z,19.50
2018-08-23T05:57:35.639Z,19.58
2018-08-23T05:58:35.563Z,19.68
2018-08-23T05:59:35.497Z,19.73
2018-08-23T06:00:35.426Z,19.77
2018-08-23T06:01:35.354Z,19.66
2018-08-23T06:02:35.291Z,19.56
2018-08-23T06:03:35.213Z,19.55
2018-08-23T06:04:35.144Z,19.62
2018-08-23T06:05:35.072Z,19.61
2018-08-23T06:06:35.002Z,19.63
2018-08-23T06:07:34.931Z,19.62
2018-08-23T06:08:34.860Z,19.59
2018-08-23T06:09:34.789Z,19.44
2018-08-23T06:10:34.714Z,19.56
2018-08-23T06:11:34.660Z,19.43
2018-08-23T06:12:34.577Z,19.47
2018-08-23T06:13:34.508Z,19.51
2018-08-23T06:14:34.436Z,19.47
2018-08-23T06:15:34.369Z,19.59
2018-08-23T06:16:34.294Z,19.59
2018-08-23T06:17:34.224Z,19.56
2018-08-23T06:18:34.155Z,19.56
2018-08-23T06:19:34.082Z,19.61
2018-08-23T06:20:34.013Z,19.69
2018-08-23T06:21:33.941Z,19.74
2018-08-23T06:22:33.867Z,19.86
2018-08-23T06:23:33.802Z,19.96
2018-08-23T06:24:33.736Z,20.03
2018-08-23T06:25:33.659Z,20.02
2018-08-23T06:26:33.589Z,20.11
2018-08-23T06:27:33.646Z,20.16
2018-08-23T06:28:33.448Z,20.06
2018-08-23T06:29:33.377Z,20.11
2018-08-23T06:30:33.317Z,20.20
2018-08-23T06:31:33.237Z,20.02
2018-08-23T06:32:33.166Z,19.99
2018-08-23T06:33:33.189Z,20.03
2018-08-23T06:34:33.025Z,20.11
2018-08-23T06:35:32.991Z,20.13
2018-08-23T06:36:32.889Z,20.16
2018-08-23T06:37:32.824Z,20.14
2018-08-23T06:38:32.747Z,20.17
2018-08-23T06:39:32.674Z,20.16
2018-08-23T06:40:32.604Z,20.23
2018-08-23T06:41:32.533Z,20.21
2018-08-23T06:42:32.461Z,20.20
2018-08-23T06:43:32.392Z,20.24
2018-08-23T06:44:32.337Z,20.24
2018-08-23T06:45:32.251Z,20.23
2018-08-23T06:46:32.182Z,20.24
2018-08-23T06:47:32.113Z,20.41
2018-08-23T06:48:32.042Z,20.33
2018-08-23T06:49:31.973Z,20.35
2018-08-23T06:50:31.905Z,20.50
2018-08-23T06:51:31.836Z,20.50
2018-08-23T06:52:31.761Z,20.55
2018-08-23T06:53:31.690Z,20.54
2018-08-23T06:54:31.616Z,20.62
2018-08-23T06:55:31.560Z,20.72
2018-08-23T06:56:31.480Z,20.66
2018-08-23T06:57:31.413Z,20.82
2018-08-23T06:58:31.339Z,20.85
2018-08-23T06:59:31.270Z,20.92
2018-08-23T07:00:31.200Z,20.94
2018-08-23T07:01:31.130Z,20.98
2018-08-23T07:02:31.059Z,20.99
2018-08-23T07:03:30.992Z,21.04
2018-08-23T07:04:30.920Z,21.09
2018-08-23T07:05:30.920Z,21.13
2018-08-23T07:06:30.783Z,21.13
2018-08-23T07:07:30.718Z,21.24
2018-08-23T07:08:30.645Z,21.10
2018-08-23T07:09:30.575Z,21.24
2018-08-23T07:10:30.550Z,21.31
2018-08-23T07:11:30.437Z,21.40
2018-08-23T07:12:30.364Z,21.53
2018-08-23T07:13:30.296Z,21.46
2018-08-23T07:14:30.222Z,21.37
2018-08-23T07:15:30.161Z,21.42
2018-08-23T07:16:30.087Z,21.43
2018-08-23T07:17:30.079Z,21.32
2018-08-23T07:18:29.945Z,21.25
2018-08-23T07:19:29.874Z,21.27
2018-08-23T07:20:29.806Z,21.32
2018-08-23T07:21:29.736Z,21.43
2018-08-23T07:22:29.726Z,21.40
2018-08-23T07:23:29.635Z,21.50
2018-08-23T07:24:29.528Z,21.54
2018-08-23T07:25:29.458Z,21.58
2018-08-23T07:26:29.391Z,21.62
2018-08-23T07:27:29.323Z,21.72
2018-08-23T07:28:29.249Z,21.80
2018-08-23T07:29:29.183Z,21.77
2018-08-23T07:30:29.113Z,21.83
2018-08-23T07:31:29.053Z,21.83
2018-08-23T07:32:28.972Z,22.05
2018-08-23T07:33:28.906Z,22.05
2018-08-23T07:34:28.834Z,22.03
2018-08-23T07:35:28.774Z,22.09
2018-08-23T07:36:28.696Z,22.15
2018-08-23T07:37:28.628Z,22.24
2018-08-23T07:38:28.562Z,22.28
2018-08-23T07:39:28.488Z,22.35
2018-08-23T07:40:28.419Z,22.31
2018-08-23T07:41:28.346Z,22.28
2018-08-23T07:42:28.281Z,22.37
2018-08-23T07:43:28.213Z,22.30
2018-08-23T07:44:28.146Z,22.35
2018-08-23T07:45:28.077Z,22.43
2018-08-23T07:46:28.004Z,22.43
2018-08-23T07:47:27.940Z,22.40
2018-08-23T07:48:27.916Z,22.31
2018-08-23T07:49:27.800Z,22.37
2018-08-23T07:50:27.729Z,22.43
2018-08-23T07:51:27.660Z,22.42
2018-08-23T07:52:27.629Z,22.46
2018-08-23T07:53:27.595Z,22.42
2018-08-23T07:54:27.457Z,22.40
2018-08-23T07:55:27.386Z,22.37
2018-08-23T07:56:27.318Z,22.35
2018-08-23T07:57:27.248Z,22.49
2018-08-23T07:58:27.178Z,22.61
2018-08-23T07:59:27.113Z,22.51
2018-08-23T08:00:27.044Z,22.65
2018-08-23T08:01:26.973Z,22.72
2018-08-23T08:02:26.905Z,22.77
2018-08-23T08:03:26.840Z,22.80
2018-08-23T08:04:26.767Z,22.90
2018-08-23T08:05:26.699Z,22.90
2018-08-23T08:06:26.629Z,22.77
2018-08-23T08:07:26.567Z,22.82
2018-08-23T08:08:26.497Z,22.90
2018-08-23T08:09:26.428Z,22.95
2018-08-23T08:10:26.359Z,22.79
2018-08-23T08:11:26.289Z,22.86
2018-08-23T08:12:26.236Z,22.97
2018-08-23T08:13:26.148Z,23.00
2018-08-23T08:14:26.082Z,23.09
2018-08-23T08:15:26.015Z,23.23
2018-08-23T08:16:25.949Z,23.42
2018-08-23T08:17:25.879Z,23.53
2018-08-23T08:18:25.812Z,23.53
2018-08-23T08:19:25.742Z,23.58
2018-08-23T08:20:25.673Z,23.57
2018-08-23T08:21:25.604Z,23.53
2018-08-23T08:22:25.540Z,23.54
2018-08-23T08:23:25.465Z,23.68
2018-08-23T08:24:25.402Z,23.85
2018-08-23T08:25:25.332Z,23.97
2018-08-23T08:26:25.269Z,24.02
2018-08-23T08:27:25.196Z,24.10
2018-08-23T08:28:25.128Z,24.13
2018-08-23T08:29:25.066Z,24.27
2018-08-23T08:30:24.990Z,24.30
2018-08-23T08:31:24.924Z,24.43
2018-08-23T08:32:24.853Z,24.35
2018-08-23T08:33:24.788Z,24.46
2018-08-23T08:34:24.721Z,24.61
2018-08-23T08:35:24.653Z,24.45
2018-08-23T08:36:24.587Z,24.47
2018-08-23T08:37:24.519Z,24.49
2018-08-23T08:38:24.454Z,24.40
2018-08-23T08:39:24.383Z,24.27
2018-08-23T08:40:24.331Z,24.31
2018-08-23T08:41:24.249Z,24.40
2018-08-23T08:42:24.180Z,24.60
2018-08-23T08:43:24.114Z,24.71
2018-08-23T08:44:24.047Z,24.85
2018-08-23T08:45:23.975Z,25.03
2018-08-23T08:46:23.911Z,25.21
2018-08-23T08:47:23.846Z,25.20
2018-08-23T08:48:23.777Z,25.30
2018-08-23T08:49:23.715Z,25.36
2018-08-23T08:50:23.658Z,25.33
2018-08-23T08:51:23.580Z,25.25
2018-08-23T08:52:23.511Z,25.32
2018-08-23T08:53:23.443Z,25.38
2018-08-23T08:54:23.379Z,25.67
2018-08-23T08:55:23.309Z,25.76
2018-08-23T08:56:23.252Z,25.87
2018-08-23T08:57:23.178Z,25.75
2018-08-23T08:58:23.114Z,25.90
2018-08-23T08:59:23.044Z,25.98
2018-08-23T09:00:22.977Z,26.28
2018-08-23T09:01:22.911Z,26.40
2018-08-23T09:02:22.844Z,26.62
2018-08-23T09:03:22.780Z,26.73
2018-08-23T09:04:22.717Z,26.65
2018-08-23T09:05:22.649Z,26.37
2018-08-23T09:06:22.581Z,26.44
2018-08-23T09:07:22.513Z,26.43
2018-08-23T09:08:22.444Z,26.40
2018-08-23T09:09:22.384Z,26.43
2018-08-23T09:10:22.331Z,26.23
2018-08-23T09:11:22.252Z,26.09
2018-08-23T09:12:22.184Z,26.26
2018-08-23T09:13:22.136Z,26.25
2018-08-23T09:14:22.082Z,26.20
2018-08-23T09:15:21.989Z,26.13
2018-08-23T09:16:21.922Z,26.18
2018-08-23T09:17:21.857Z,26.25
2018-08-23T09:18:21.793Z,26.26
2018-08-23T09:19:21.727Z,26.21
2018-08-23T09:20:21.687Z,26.30
2018-08-23T09:21:21.600Z,26.44
2018-08-23T09:22:21.531Z,26.66
2018-08-23T09:23:21.469Z,26.75
2018-08-23T09:24:21.399Z,26.77
2018-08-23T09:25:21.453Z,26.89
2018-08-23T09:26:21.274Z,27.07
2018-08-23T09:27:21.218Z,27.44
2018-08-23T09:28:21.150Z,27.65
2018-08-23T09:29:21.084Z,27.41
2018-08-23T09:30:21.013Z,27.24
2018-08-23T09:31:20.969Z,27.21
2018-08-23T09:32:20.953Z,27.40
2018-08-23T09:33:20.819Z,27.44
2018-08-23T09:34:20.753Z,27.34
2018-08-23T09:35:20.690Z,27.55
2018-08-23T09:36:20.625Z,27.96
2018-08-23T09:37:20.560Z,28.31
2018-08-23T09:38:20.499Z,27.93
2018-08-23T09:39:20.433Z,27.70
2018-08-23T09:40:20.373Z,27.60
2018-08-23T09:41:20.305Z,27.50
2018-08-23T09:42:20.245Z,27.92
2018-08-23T09:43:20.180Z,28.52
2018-08-23T09:44:20.116Z,28.81
2018-08-23T09:45:20.049Z,28.78
2018-08-23T09:46:19.987Z,29.67
2018-08-23T09:47:19.944Z,29.08
2018-08-23T09:48:19.860Z,29.23
2018-08-23T09:49:19.798Z,29.37
2018-08-23T09:50:19.806Z,29.16
2018-08-23T09:51:19.678Z,29.57
2018-08-23T09:52:19.617Z,29.24
2018-08-23T09:53:19.548Z,28.80
2018-08-23T09:54:19.490Z,28.67
2018-08-23T09:55:19.425Z,28.49
2018-08-23T09:56:19.359Z,28.31
2018-08-23T09:57:19.313Z,28.04
2018-08-23T09:58:19.237Z,28.04
2018-08-23T09:59:19.176Z,28.07
2018-08-23T10:00:19.113Z,27.82
2018-08-23T10:01:19.049Z,27.85
2018-08-23T10:02:18.987Z,27.82
2018-08-23T10:03:18.925Z,28.25
2018-08-23T10:04:18.927Z,28.58
2018-08-23T10:05:18.803Z,29.09
2018-08-23T10:06:18.737Z,29.79
2018-08-23T10:07:18.672Z,29.90
2018-08-23T10:08:18.621Z,29.71
2018-08-23T10:09:18.550Z,29.82
2018-08-23T10:10:18.488Z,29.78
2018-08-23T10:11:18.481Z,29.05
2018-08-23T10:12:18.367Z,28.73
2018-08-23T10:13:18.300Z,28.62
2018-08-23T10:14:18.242Z,28.29
2018-08-23T10:15:18.177Z,28.27
2018-08-23T10:16:18.112Z,28.54
2018-08-23T10:17:18.049Z,28.46
2018-08-23T10:18:17.986Z,28.22
2018-08-23T10:19:17.925Z,27.99
2018-08-23T10:20:17.862Z,28.30
2018-08-23T10:21:17.800Z,28.43
2018-08-23T10:22:17.737Z,28.29
2018-08-23T10:23:17.676Z,28.70
2018-08-23T10:24:17.609Z,28.43
2018-08-23T10:25:17.550Z,28.49
2018-08-23T10:26:17.489Z,28.89
2018-08-23T10:27:17.423Z,28.67
2018-08-23T10:28:17.360Z,28.59
2018-08-23T10:29:17.299Z,28.31
2018-08-23T10:30:17.235Z,28.09
2018-08-23T10:31:17.171Z,28.03
2018-08-23T10:32:17.293Z,28.34
2018-08-23T10:33:17.045Z,28.49
2018-08-23T10:34:16.986Z,28.55
2018-08-23T10:35:16.918Z,28.62
2018-08-23T10:36:16.858Z,28.73
2018-08-23T10:37:16.792Z,28.61
2018-08-23T10:38:16.838Z,28.58
2018-08-23T10:39:16.667Z,28.67
2018-08-23T10:40:16.608Z,28.56
2018-08-23T10:41:16.538Z,28.56
2018-08-23T10:42:16.477Z,28.46
2018-08-23T10:43:16.416Z,28.18
2018-08-23T10:44:16.404Z,28.09
2018-08-23T10:45:16.294Z,28.19
2018-08-23T10:46:16.221Z,28.33
2018-08-23T10:47:16.178Z,28.34
2018-08-23T10:48:16.094Z,28.37
2018-08-23T10:49:16.034Z,28.62
2018-08-23T10:50:15.968Z,28.52
2018-08-23T10:51:15.903Z,28.61
2018-08-23T10:52:15.834Z,28.46
2018-08-23T10:53:15.773Z,28.52
2018-08-23T10:54:15.711Z,28.49
2018-08-23T10:55:15.646Z,28.24
2018-08-23T10:56:15.584Z,28.12
2018-08-23T10:57:15.517Z,28.22
2018-08-23T10:58:15.454Z,28.18
2018-08-23T10:59:15.391Z,28.25
2018-08-23T11:00:15.323Z,28.27
2018-08-23T11:01:15.262Z,28.36
2018-08-23T11:02:15.195Z,28.54
2018-08-23T11:03:15.146Z,28.51
2018-08-23T11:04:15.069Z,28.51
2018-08-23T11:05:15.002Z,28.15
2018-08-23T11:06:14.939Z,28.27
2018-08-23T11:07:14.879Z,28.37
2018-08-23T11:08:14.809Z,28.31
2018-08-23T11:09:14.743Z,28.48
2018-08-23T11:10:14.679Z,28.58
2018-08-23T11:11:14.614Z,28.56
2018-08-23T11:12:14.554Z,28.62
2018-08-23T11:13:14.486Z,28.76
2018-08-23T11:14:14.418Z,28.59
2018-08-23T11:15:14.361Z,28.56
2018-08-23T11:16:14.296Z,28.51
2018-08-23T11:17:14.309Z,28.34
2018-08-23T11:18:14.165Z,28.33
2018-08-23T11:19:14.100Z,28.51
2018-08-23T11:20:14.035Z,28.54
2018-08-23T11:21:13.974Z,28.76
2018-08-23T11:22:13.908Z,28.78
2018-08-23T11:23:13.877Z,29.04
2018-08-23T11:24:13.782Z,29.08
2018-08-23T11:25:13.712Z,29.24
2018-08-23T11:26:13.646Z,29.15
2018-08-23T11:27:13.586Z,29.09
2018-08-23T11:28:13.519Z,29.12
2018-08-23T11:29:13.460Z,29.12
2018-08-23T11:30:13.390Z,29.16
2018-08-23T11:31:13.327Z,29.37
2018-08-23T11:32:13.265Z,29.28
2018-08-23T11:33:13.200Z,29.19
2018-08-23T11:34:13.146Z,29.26
2018-08-23T11:35:13.088Z,29.08
2018-08-23T11:36:13.010Z,28.98
2018-08-23T11:37:12.946Z,29.18
2018-08-23T11:38:12.882Z,29.48
2018-08-23T11:39:12.818Z,29.34
2018-08-23T11:40:12.757Z,29.33
2018-08-23T11:41:12.688Z,29.24
2018-08-23T11:42:12.627Z,29.14
2018-08-23T11:43:12.556Z,29.11
2018-08-23T11:44:12.498Z,29.06
2018-08-23T11:45:12.452Z,29.18
2018-08-23T11:46:12.370Z,29.31
2018-08-23T11:47:12.306Z,29.16
2018-08-23T11:48:12.249Z,29.08
2018-08-23T11:49:12.179Z,29.14
2018-08-23T11:50:12.120Z,29.39
2018-08-23T11:51:12.050Z,29.49
2018-08-23T11:52:11.987Z,29.55
2018-08-23T11:53:11.970Z,29.60
2018-08-23T11:54:11.865Z,29.60
2018-08-23T11:55:11.791Z,29.67
2018-08-23T11:56:11.735Z,29.64
2018-08-23T11:57:11.667Z,29.71
2018-08-23T11:58:11.606Z,29.76
2018-08-23T11:59:11.571Z,29.80
2018-08-23T12:00:11.478Z,29.76
2018-08-23T12:01:11.411Z,29.79
2018-08-23T12:02:11.347Z,29.73
2018-08-23T12:03:11.285Z,29.89
2018-08-23T12:04:11.219Z,29.80
2018-08-23T12:05:11.155Z,29.89
2018-08-23T12:06:11.100Z,29.80
2018-08-23T12:07:11.034Z,29.74
2018-08-23T12:08:10.971Z,29.64
2018-08-23T12:09:10.899Z,29.55
2018-08-23T12:10:10.831Z,29.60
2018-08-23T12:11:10.771Z,29.45
2018-08-23T12:12:10.708Z,29.46
2018-08-23T12:13:10.645Z,29.55
2018-08-23T12:14:10.583Z,29.61
2018-08-23T12:15:10.518Z,29.64
2018-08-23T12:16:10.452Z,29.71
2018-08-23T12:17:10.389Z,29.76
2018-08-23T12:18:10.331Z,29.92
2018-08-23T12:19:10.263Z,30.01
2018-08-23T12:20:10.198Z,30.08
2018-08-23T12:21:10.132Z,29.64
2018-08-23T12:22:10.074Z,29.82
2018-08-23T12:23:10.006Z,29.90
2018-08-23T12:24:09.944Z,29.95
2018-08-23T12:25:09.885Z,29.97
2018-08-23T12:26:09.840Z,30.04
2018-08-23T12:27:09.756Z,29.90
2018-08-23T12:28:09.693Z,29.87
2018-08-23T12:29:09.627Z,30.08
2018-08-23T12:30:09.563Z,29.90
2018-08-23T12:31:09.497Z,29.73
2018-08-23T12:32:09.437Z,29.53
2018-08-23T12:33:09.374Z,29.58
2018-08-23T12:34:09.310Z,29.55
2018-08-23T12:35:09.246Z,29.63
2018-08-23T12:36:09.210Z,29.73
2018-08-23T12:37:09.116Z,29.70
2018-08-23T12:38:09.054Z,29.55
2018-08-23T12:39:09.004Z,29.58
2018-08-23T12:40:08.929Z,29.55
2018-08-23T12:41:08.864Z,29.48
2018-08-23T12:42:08.799Z,29.42
2018-08-23T12:43:08.738Z,29.63
2018-08-23T12:44:08.672Z,29.73
2018-08-23T12:45:08.608Z,29.83
2018-08-23T12:46:08.548Z,29.95
2018-08-23T12:47:08.481Z,30.02
2018-08-23T12:48:08.424Z,29.89
2018-08-23T12:49:08.355Z,29.92
2018-08-23T12:50:08.292Z,29.95
2018-08-23T12:51:08.232Z,30.00
2018-08-23T12:52:08.161Z,30.08
2018-08-23T12:53:08.122Z,30.13
2018-08-23T12:54:08.040Z,30.29
2018-08-23T12:55:07.971Z,30.31
2018-08-23T12:56:07.909Z,30.20
2018-08-23T12:57:07.843Z,30.11
2018-08-23T12:58:07.779Z,30.17
2018-08-23T12:59:07.717Z,30.31
2018-08-23T13:00:07.658Z,30.37
2018-08-23T13:01:07.591Z,30.47
2018-08-23T13:02:07.599Z,30.35
2018-08-23T13:03:07.475Z,30.32
2018-08-23T13:04:07.491Z,30.35
2018-08-23T13:05:07.366Z,30.47
2018-08-23T13:06:07.290Z,30.31
2018-08-23T13:07:07.207Z,30.32
2018-08-23T13:08:07.144Z,30.31
2018-08-23T13:09:07.110Z,30.42
2018-08-23T13:10:07.017Z,30.38
2018-08-23T13:11:07.003Z,30.47
2018-08-23T13:12:06.891Z,30.55
2018-08-23T13:13:06.828Z,30.64
2018-08-23T13:14:06.768Z,30.55
2018-08-23T13:15:06.703Z,30.49
2018-08-23T13:16:06.645Z,30.17
2018-08-23T13:17:06.574Z,30.10
2018-08-23T13:18:06.512Z,30.58
2018-08-23T13:19:06.447Z,30.47
2018-08-23T13:20:06.385Z,30.72
2018-08-23T13:21:06.320Z,30.70
2018-08-23T13:22:06.261Z,30.67
2018-08-23T13:23:06.193Z,31.10
2018-08-23T13:24:06.137Z,31.19
2018-08-23T13:25:06.068Z,31.43
2018-08-23T13:26:06.006Z,31.69
2018-08-23T13:27:05.948Z,31.62
2018-08-23T13:28:05.881Z,31.81
2018-08-23T13:29:05.818Z,32.18
2018-08-23T13:30:05.804Z,32.40
2018-08-23T13:31:05.699Z,32.28
2018-08-23T13:32:05.632Z,31.76
2018-08-23T13:33:05.575Z,31.92
2018-08-23T13:34:05.509Z,31.57
2018-08-23T13:35:05.449Z,31.53
2018-08-23T13:36:05.407Z,31.38
2018-08-23T13:37:05.352Z,31.07
2018-08-23T13:38:05.265Z,30.98
2018-08-23T13:39:05.207Z,30.88
2018-08-23T13:40:05.143Z,30.94
2018-08-23T13:41:05.081Z,30.91
2018-08-23T13:42:05.024Z,31.10
2018-08-23T13:43:04.959Z,31.09
2018-08-23T13:44:05.007Z,31.14
2018-08-23T13:45:04.843Z,31.16
2018-08-23T13:46:04.816Z,31.35
2018-08-23T13:47:04.717Z,31.50
2018-08-23T13:48:04.656Z,31.51
2018-08-23T13:49:04.590Z,31.50
2018-08-23T13:50:04.532Z,31.39
2018-08-23T13:51:04.468Z,31.38
2018-08-23T13:52:04.409Z,31.39
2018-08-23T13:53:04.344Z,31.35
2018-08-23T13:54:04.287Z,31.32
2018-08-23T13:55:04.226Z,31.31
2018-08-23T13:56:04.163Z,31.06
2018-08-23T13:57:04.109Z,31.09
2018-08-23T13:58:04.039Z,30.86
2018-08-23T13:59:04.030Z,30.67
2018-08-23T14:00:03.915Z,30.49
2018-08-23T14:01:03.851Z,30.65